sensor_id;sensor_type;location;lat;lon;timestamp;temperature;humidity
33811;DHT22;20119;48.334;16.206;2024-03-02T00:02:00;8.20;99.90
33811;DHT22;20119;48.334;16.206;2024-03-02T00:04:27;8.00;99.90
33811;DHT22;20119;48.334;16.206;2024-03-02T00:06:55;8.00;99.90
33811;DHT22;20119;48.334;16.206;2024-03-02T00:12:00;8.10;99.90
33811;DHT22;20119;48.334;16.206;2024-03-02T00:14:29;8.00;99.90
33811;DHT22;20119;48.334;16.206;2024-03-02T00:16:56;8.00;99.90
33811;DHT22;20119;48.334;16.206;2024-03-02T00:22:02;7.90;99.90
33811;DHT22;20119;48.334;16.206;2024-03-02T00:27:05;7.80;99.90
33811;DHT22;20119;48.334;16.206;2024-03-02T00:29:37;7.80;99.90
33811;DHT22;20119;48.334;16.206;2024-03-02T00:32:09;7.70;99.90
33811;DHT22;20119;48.334;16.206;2024-03-02T00:34:38;7.60;99.90
33811;DHT22;20119;48.334;16.206;2024-03-02T00:37:07;7.60;99.90
33811;DHT22;20119;48.334;16.206;2024-03-02T00:39:34;7.60;99.90
33811;DHT22;20119;48.334;16.206;2024-03-02T00:42:01;7.60;99.90
33811;DHT22;20119;48.334;16.206;2024-03-02T00:44:29;7.60;99.90
33811;DHT22;20119;48.334;16.206;2024-03-02T00:47:01;7.60;99.90
33811;DHT22;20119;48.334;16.206;2024-03-02T00:49:29;7.50;99.90
33811;DHT22;20119;48.334;16.206;2024-03-02T00:51:56;7.60;99.90
33811;DHT22;20119;48.334;16.206;2024-03-02T00:54:26;7.60;99.90
33811;DHT22;20119;48.334;16.206;2024-03-02T00:56:54;7.60;99.90
33811;DHT22;20119;48.334;16.206;2024-03-02T00:59:22;7.50;99.90
33811;DHT22;20119;48.334;16.206;2024-03-02T01:01:49;7.50;99.90
33811;DHT22;20119;48.334;16.206;2024-03-02T01:04:17;7.50;99.90
33811;DHT22;20119;48.334;16.206;2024-03-02T01:06:44;7.50;99.90
33811;DHT22;20119;48.334;16.206;2024-03-02T01:14:23;7.60;99.90
33811;DHT22;20119;48.334;16.206;2024-03-02T01:16:51;7.60;99.90
33811;DHT22;20119;48.334;16.206;2024-03-02T01:19:18;7.50;99.90
33811;DHT22;20119;48.334;16.206;2024-03-02T01:21:44;7.50;99.90
33811;DHT22;20119;48.334;16.206;2024-03-02T01:24:11;7.50;99.90
33811;DHT22;20119;48.334;16.206;2024-03-02T01:31:51;7.10;99.90
33811;DHT22;20119;48.334;16.206;2024-03-02T01:34:19;6.90;99.90
33811;DHT22;20119;48.334;16.206;2024-03-02T01:36:46;6.90;99.90
33811;DHT22;20119;48.334;16.206;2024-03-02T01:39:13;6.80;99.90
33811;DHT22;20119;48.334;16.206;2024-03-02T01:41:40;6.70;99.90
33811;DHT22;20119;48.334;16.206;2024-03-02T01:44:07;6.70;99.90
33811;DHT22;20119;48.334;16.206;2024-03-02T01:46:35;6.60;99.90
33811;DHT22;20119;48.334;16.206;2024-03-02T01:49:04;6.60;99.90
33811;DHT22;20119;48.334;16.206;2024-03-02T01:51:31;6.60;99.90
33811;DHT22;20119;48.334;16.206;2024-03-02T01:53:58;6.60;99.90
33811;DHT22;20119;48.334;16.206;2024-03-02T01:56:25;6.60;99.90
33811;DHT22;20119;48.334;16.206;2024-03-02T01:58:53;6.60;99.90
33811;DHT22;20119;48.334;16.206;2024-03-02T02:01:20;6.60;99.90
33811;DHT22;20119;48.334;16.206;2024-03-02T02:03:47;6.60;99.90
33811;DHT22;20119;48.334;16.206;2024-03-02T02:06:15;6.60;99.90
33811;DHT22;20119;48.334;16.206;2024-03-02T02:08:43;6.60;99.90
33811;DHT22;20119;48.334;16.206;2024-03-02T02:11:11;6.60;99.90
33811;DHT22;20119;48.334;16.206;2024-03-02T02:13:41;6.60;99.90
33811;DHT22;20119;48.334;16.206;2024-03-02T02:23:57;6.50;99.90
33811;DHT22;20119;48.334;16.206;2024-03-02T02:34:10;6.50;99.90
33811;DHT22;20119;48.334;16.206;2024-03-02T02:36:38;6.50;99.90
33811;DHT22;20119;48.334;16.206;2024-03-02T02:39:09;6.40;99.90
33811;DHT22;20119;48.334;16.206;2024-03-02T02:41:37;6.30;99.90
33811;DHT22;20119;48.334;16.206;2024-03-02T02:44:05;6.20;99.90
33811;DHT22;20119;48.334;16.206;2024-03-02T02:46:32;6.10;99.90
33811;DHT22;20119;48.334;16.206;2024-03-02T02:48:59;6.10;99.90
33811;DHT22;20119;48.334;16.206;2024-03-02T02:51:26;6.10;99.90
33811;DHT22;20119;48.334;16.206;2024-03-02T02:53:53;6.10;99.90
33811;DHT22;20119;48.334;16.206;2024-03-02T02:56:22;6.10;99.90
33811;DHT22;20119;48.334;16.206;2024-03-02T02:58:49;6.00;99.90
33811;DHT22;20119;48.334;16.206;2024-03-02T03:03:51;6.00;99.90
33811;DHT22;20119;48.334;16.206;2024-03-02T03:08:54;6.20;99.90
33811;DHT22;20119;48.334;16.206;2024-03-02T03:11:22;6.20;99.90
33811;DHT22;20119;48.334;16.206;2024-03-02T03:16:27;5.90;99.90
33811;DHT22;20119;48.334;16.206;2024-03-02T03:18:54;5.90;99.90
33811;DHT22;20119;48.334;16.206;2024-03-02T03:23:56;5.90;99.90
33811;DHT22;20119;48.334;16.206;2024-03-02T03:26:25;5.90;99.90
33811;DHT22;20119;48.334;16.206;2024-03-02T03:28:52;5.80;99.90
33811;DHT22;20119;48.334;16.206;2024-03-02T03:31:19;5.90;99.90
33811;DHT22;20119;48.334;16.206;2024-03-02T03:33:46;5.90;99.90
33811;DHT22;20119;48.334;16.206;2024-03-02T03:36:13;5.90;99.90
33811;DHT22;20119;48.334;16.206;2024-03-02T03:38:40;6.00;99.90
33811;DHT22;20119;48.334;16.206;2024-03-02T03:41:07;6.00;99.90
33811;DHT22;20119;48.334;16.206;2024-03-02T03:43:36;5.90;99.90
33811;DHT22;20119;48.334;16.206;2024-03-02T03:46:03;5.90;99.90
33811;DHT22;20119;48.334;16.206;2024-03-02T03:48:30;5.90;99.90
33811;DHT22;20119;48.334;16.206;2024-03-02T03:53:32;5.80;99.90
33811;DHT22;20119;48.334;16.206;2024-03-02T03:55:59;5.80;99.90
33811;DHT22;20119;48.334;16.206;2024-03-02T03:58:26;5.70;99.90
33811;DHT22;20119;48.334;16.206;2024-03-02T04:03:30;5.90;99.90
33811;DHT22;20119;48.334;16.206;2024-03-02T04:05:57;5.90;99.90
33811;DHT22;20119;48.334;16.206;2024-03-02T04:08:24;6.00;99.90
33811;DHT22;20119;48.334;16.206;2024-03-02T04:10:51;6.00;99.90
33811;DHT22;20119;48.334;16.206;2024-03-02T04:13:19;5.90;99.90
33811;DHT22;20119;48.334;16.206;2024-03-02T04:15:46;5.90;99.90
33811;DHT22;20119;48.334;16.206;2024-03-02T04:18:13;5.90;99.90
33811;DHT22;20119;48.334;16.206;2024-03-02T04:20:41;5.80;99.90
33811;DHT22;20119;48.334;16.206;2024-03-02T04:23:08;5.90;99.90
33811;DHT22;20119;48.334;16.206;2024-03-02T04:28:10;5.90;99.90
33811;DHT22;20119;48.334;16.206;2024-03-02T04:30:38;5.80;99.90
33811;DHT22;20119;48.334;16.206;2024-03-02T04:33:05;5.80;99.90
33811;DHT22;20119;48.334;16.206;2024-03-02T04:35:35;5.80;99.90
33811;DHT22;20119;48.334;16.206;2024-03-02T04:38:04;5.80;99.90
33811;DHT22;20119;48.334;16.206;2024-03-02T04:40:31;5.80;99.90
33811;DHT22;20119;48.334;16.206;2024-03-02T04:42:58;5.60;99.90
33811;DHT22;20119;48.334;16.206;2024-03-02T04:45:25;5.60;99.90
33811;DHT22;20119;48.334;16.206;2024-03-02T04:50:28;5.50;99.90
33811;DHT22;20119;48.334;16.206;2024-03-02T04:52:55;5.50;99.90
33811;DHT22;20119;48.334;16.206;2024-03-02T04:55:24;5.50;99.90
33811;DHT22;20119;48.334;16.206;2024-03-02T04:58:17;5.50;99.90
33811;DHT22;20119;48.334;16.206;2024-03-02T05:00:44;5.50;99.90
33811;DHT22;20119;48.334;16.206;2024-03-02T05:03:12;5.50;99.90
33811;DHT22;20119;48.334;16.206;2024-03-02T05:05:40;5.50;99.90
33811;DHT22;20119;48.334;16.206;2024-03-02T05:08:07;5.50;99.90
33811;DHT22;20119;48.334;16.206;2024-03-02T05:10:35;5.50;99.90
33811;DHT22;20119;48.334;16.206;2024-03-02T05:13:03;5.60;99.90
33811;DHT22;20119;48.334;16.206;2024-03-02T05:15:30;5.60;99.90
33811;DHT22;20119;48.334;16.206;2024-03-02T05:17:57;5.60;99.90
33811;DHT22;20119;48.334;16.206;2024-03-02T05:23:00;5.60;99.90
33811;DHT22;20119;48.334;16.206;2024-03-02T05:28:04;5.50;99.90
33811;DHT22;20119;48.334;16.206;2024-03-02T05:35:41;5.60;99.90
33811;DHT22;20119;48.334;16.206;2024-03-02T05:38:10;5.60;99.90
33811;DHT22;20119;48.334;16.206;2024-03-02T05:40:37;5.60;99.90
33811;DHT22;20119;48.334;16.206;2024-03-02T05:43:06;5.60;99.90
33811;DHT22;20119;48.334;16.206;2024-03-02T05:45:33;5.70;99.90
33811;DHT22;20119;48.334;16.206;2024-03-02T05:48:00;5.70;99.90
33811;DHT22;20119;48.334;16.206;2024-03-02T05:50:27;5.70;99.90
33811;DHT22;20119;48.334;16.206;2024-03-02T05:52:54;5.70;99.90
33811;DHT22;20119;48.334;16.206;2024-03-02T05:55:22;5.70;99.90
33811;DHT22;20119;48.334;16.206;2024-03-02T06:00:26;5.80;99.90
33811;DHT22;20119;48.334;16.206;2024-03-02T06:02:53;5.80;99.90
33811;DHT22;20119;48.334;16.206;2024-03-02T06:05:20;5.90;99.90
33811;DHT22;20119;48.334;16.206;2024-03-02T06:07:47;5.90;99.90
33811;DHT22;20119;48.334;16.206;2024-03-02T06:10:14;5.80;99.90
33811;DHT22;20119;48.334;16.206;2024-03-02T06:12:41;5.70;99.90
33811;DHT22;20119;48.334;16.206;2024-03-02T06:15:09;5.80;99.90
33811;DHT22;20119;48.334;16.206;2024-03-02T06:17:37;5.90;99.90
33811;DHT22;20119;48.334;16.206;2024-03-02T06:20:05;5.90;99.90
33811;DHT22;20119;48.334;16.206;2024-03-02T06:22:33;6.00;99.90
33811;DHT22;20119;48.334;16.206;2024-03-02T06:25:01;5.90;99.90
33811;DHT22;20119;48.334;16.206;2024-03-02T06:27:28;6.00;99.90
33811;DHT22;20119;48.334;16.206;2024-03-02T06:29:55;6.00;99.90
33811;DHT22;20119;48.334;16.206;2024-03-02T06:32:22;5.90;99.90
33811;DHT22;20119;48.334;16.206;2024-03-02T06:34:52;5.90;99.90
33811;DHT22;20119;48.334;16.206;2024-03-02T06:37:19;5.90;99.90
33811;DHT22;20119;48.334;16.206;2024-03-02T06:44:57;6.10;99.90
33811;DHT22;20119;48.334;16.206;2024-03-02T06:47:24;6.10;99.90
33811;DHT22;20119;48.334;16.206;2024-03-02T06:49:52;6.10;99.90
33811;DHT22;20119;48.334;16.206;2024-03-02T06:52:20;6.10;99.90
33811;DHT22;20119;48.334;16.206;2024-03-02T06:54:47;6.10;99.90
33811;DHT22;20119;48.334;16.206;2024-03-02T06:57:14;6.10;99.90
33811;DHT22;20119;48.334;16.206;2024-03-02T06:59:42;6.20;99.90
33811;DHT22;20119;48.334;16.206;2024-03-02T07:02:09;6.30;99.90
33811;DHT22;20119;48.334;16.206;2024-03-02T07:04:37;6.30;99.90
33811;DHT22;20119;48.334;16.206;2024-03-02T07:07:05;6.20;99.90
33811;DHT22;20119;48.334;16.206;2024-03-02T07:12:08;6.10;99.90
33811;DHT22;20119;48.334;16.206;2024-03-02T07:14:35;6.00;99.90
33811;DHT22;20119;48.334;16.206;2024-03-02T07:17:19;6.10;99.90
33811;DHT22;20119;48.334;16.206;2024-03-02T07:19:46;6.20;99.90
33811;DHT22;20119;48.334;16.206;2024-03-02T07:22:15;6.50;99.90
33811;DHT22;20119;48.334;16.206;2024-03-02T07:24:42;6.60;99.90
33811;DHT22;20119;48.334;16.206;2024-03-02T07:27:09;6.50;99.90
33811;DHT22;20119;48.334;16.206;2024-03-02T07:32:18;6.40;99.90
33811;DHT22;20119;48.334;16.206;2024-03-02T07:34:45;6.60;99.90
33811;DHT22;20119;48.334;16.206;2024-03-02T07:37:12;6.70;99.90
33811;DHT22;20119;48.334;16.206;2024-03-02T07:39:41;6.90;99.90
33811;DHT22;20119;48.334;16.206;2024-03-02T07:42:08;6.80;99.90
33811;DHT22;20119;48.334;16.206;2024-03-02T07:44:35;7.00;99.90
33811;DHT22;20119;48.334;16.206;2024-03-02T07:47:02;7.10;99.90
33811;DHT22;20119;48.334;16.206;2024-03-02T07:49:29;7.60;99.90
33811;DHT22;20119;48.334;16.206;2024-03-02T07:51:57;7.40;99.90
33811;DHT22;20119;48.334;16.206;2024-03-02T07:54:24;7.80;99.90
33811;DHT22;20119;48.334;16.206;2024-03-02T07:59:28;8.40;99.90
33811;DHT22;20119;48.334;16.206;2024-03-02T08:01:55;8.30;99.90
33811;DHT22;20119;48.334;16.206;2024-03-02T08:04:22;8.70;99.90
33811;DHT22;20119;48.334;16.206;2024-03-02T08:06:49;8.90;99.90
33811;DHT22;20119;48.334;16.206;2024-03-02T08:09:16;9.20;99.90
33811;DHT22;20119;48.334;16.206;2024-03-02T08:11:43;9.40;99.90
33811;DHT22;20119;48.334;16.206;2024-03-02T08:14:11;9.40;99.90
33811;DHT22;20119;48.334;16.206;2024-03-02T08:16:40;9.40;99.90
33811;DHT22;20119;48.334;16.206;2024-03-02T08:19:07;9.60;99.90
33811;DHT22;20119;48.334;16.206;2024-03-02T08:21:35;10.20;99.90
33811;DHT22;20119;48.334;16.206;2024-03-02T08:24:03;10.90;99.90
33811;DHT22;20119;48.334;16.206;2024-03-02T08:29:05;11.70;99.90
33811;DHT22;20119;48.334;16.206;2024-03-02T08:34:09;11.70;99.90
33811;DHT22;20119;48.334;16.206;2024-03-02T08:36:36;11.70;99.90
33811;DHT22;20119;48.334;16.206;2024-03-02T08:39:03;11.80;99.90
33811;DHT22;20119;48.334;16.206;2024-03-02T08:41:33;11.50;99.90
33811;DHT22;20119;48.334;16.206;2024-03-02T08:44:00;11.60;99.90
33811;DHT22;20119;48.334;16.206;2024-03-02T08:46:27;11.70;99.90
33811;DHT22;20119;48.334;16.206;2024-03-02T08:48:55;11.60;99.90
33811;DHT22;20119;48.334;16.206;2024-03-02T08:51:23;11.20;99.90
33811;DHT22;20119;48.334;16.206;2024-03-02T08:53:50;11.30;99.90
33811;DHT22;20119;48.334;16.206;2024-03-02T08:56:17;11.00;99.90
33811;DHT22;20119;48.334;16.206;2024-03-02T08:58:46;11.00;99.90
33811;DHT22;20119;48.334;16.206;2024-03-02T09:01:13;11.00;99.90
33811;DHT22;20119;48.334;16.206;2024-03-02T09:03:40;11.00;99.90
33811;DHT22;20119;48.334;16.206;2024-03-02T09:06:10;10.70;99.90
33811;DHT22;20119;48.334;16.206;2024-03-02T09:08:38;10.40;99.90
33811;DHT22;20119;48.334;16.206;2024-03-02T09:11:07;10.60;99.90
33811;DHT22;20119;48.334;16.206;2024-03-02T09:13:34;10.60;99.90
33811;DHT22;20119;48.334;16.206;2024-03-02T09:16:01;10.70;99.90
33811;DHT22;20119;48.334;16.206;2024-03-02T09:18:30;10.40;99.90
33811;DHT22;20119;48.334;16.206;2024-03-02T09:20:58;10.80;99.90
33811;DHT22;20119;48.334;16.206;2024-03-02T09:23:25;10.90;99.90
33811;DHT22;20119;48.334;16.206;2024-03-02T09:25:54;11.00;99.90
33811;DHT22;20119;48.334;16.206;2024-03-02T09:28:21;11.10;99.90
33811;DHT22;20119;48.334;16.206;2024-03-02T09:30:48;10.90;99.90
33811;DHT22;20119;48.334;16.206;2024-03-02T09:35:50;11.00;99.90
33811;DHT22;20119;48.334;16.206;2024-03-02T09:38:21;11.00;99.90
33811;DHT22;20119;48.334;16.206;2024-03-02T09:40:48;11.30;99.90
33811;DHT22;20119;48.334;16.206;2024-03-02T09:43:16;11.40;99.90
33811;DHT22;20119;48.334;16.206;2024-03-02T09:45:45;11.40;99.90
33811;DHT22;20119;48.334;16.206;2024-03-02T09:48:12;11.30;99.90
33811;DHT22;20119;48.334;16.206;2024-03-02T09:50:39;11.50;99.90
33811;DHT22;20119;48.334;16.206;2024-03-02T09:53:07;11.70;99.90
33811;DHT22;20119;48.334;16.206;2024-03-02T09:55:35;11.60;99.90
33811;DHT22;20119;48.334;16.206;2024-03-02T10:03:14;11.70;99.90
33811;DHT22;20119;48.334;16.206;2024-03-02T10:05:42;11.80;99.90
33811;DHT22;20119;48.334;16.206;2024-03-02T10:08:09;11.80;99.90
33811;DHT22;20119;48.334;16.206;2024-03-02T10:10:37;11.70;99.90
33811;DHT22;20119;48.334;16.206;2024-03-02T10:13:06;11.70;99.90
33811;DHT22;20119;48.334;16.206;2024-03-02T10:15:34;11.80;99.90
33811;DHT22;20119;48.334;16.206;2024-03-02T10:18:03;11.80;99.90
33811;DHT22;20119;48.334;16.206;2024-03-02T10:23:13;12.00;99.90
33811;DHT22;20119;48.334;16.206;2024-03-02T10:25:41;12.20;99.90
33811;DHT22;20119;48.334;16.206;2024-03-02T10:28:09;12.30;99.90
33811;DHT22;20119;48.334;16.206;2024-03-02T10:33:11;12.40;99.90
33811;DHT22;20119;48.334;16.206;2024-03-02T10:35:38;12.40;99.90
33811;DHT22;20119;48.334;16.206;2024-03-02T10:38:06;12.50;99.90
33811;DHT22;20119;48.334;16.206;2024-03-02T10:40:34;12.20;99.90
33811;DHT22;20119;48.334;16.206;2024-03-02T10:43:02;12.40;99.90
33811;DHT22;20119;48.334;16.206;2024-03-02T10:45:31;12.50;99.90
33811;DHT22;20119;48.334;16.206;2024-03-02T10:53:09;12.50;99.90
33811;DHT22;20119;48.334;16.206;2024-03-02T10:55:37;12.60;99.90
33811;DHT22;20119;48.334;16.206;2024-03-02T10:58:04;12.70;99.90
33811;DHT22;20119;48.334;16.206;2024-03-02T11:00:33;12.70;99.90
33811;DHT22;20119;48.334;16.206;2024-03-02T11:03:05;12.60;99.90
33811;DHT22;20119;48.334;16.206;2024-03-02T11:05:38;12.70;99.90
33811;DHT22;20119;48.334;16.206;2024-03-02T11:08:07;12.60;99.90
33811;DHT22;20119;48.334;16.206;2024-03-02T11:10:35;13.00;99.90
33811;DHT22;20119;48.334;16.206;2024-03-02T11:13:09;12.90;99.90
33811;DHT22;20119;48.334;16.206;2024-03-02T11:15:36;12.60;99.90
33811;DHT22;20119;48.334;16.206;2024-03-02T11:18:05;12.30;99.90
33811;DHT22;20119;48.334;16.206;2024-03-02T11:23:09;12.50;99.90
33811;DHT22;20119;48.334;16.206;2024-03-02T11:25:36;12.50;99.90
33811;DHT22;20119;48.334;16.206;2024-03-02T11:28:07;12.60;99.90
33811;DHT22;20119;48.334;16.206;2024-03-02T11:30:53;12.30;99.90
33811;DHT22;20119;48.334;16.206;2024-03-02T11:33:26;12.20;99.90
33811;DHT22;20119;48.334;16.206;2024-03-02T11:38:32;12.30;99.90
33811;DHT22;20119;48.334;16.206;2024-03-02T11:41:01;12.50;99.90
33811;DHT22;20119;48.334;16.206;2024-03-02T11:43:31;12.40;99.90
33811;DHT22;20119;48.334;16.206;2024-03-02T11:46:00;12.40;99.90
33811;DHT22;20119;48.334;16.206;2024-03-02T11:50:58;12.60;99.90
33811;DHT22;20119;48.334;16.206;2024-03-02T11:53:28;12.50;99.90
33811;DHT22;20119;48.334;16.206;2024-03-02T11:55:58;12.50;99.90
33811;DHT22;20119;48.334;16.206;2024-03-02T12:01:04;12.50;99.90
33811;DHT22;20119;48.334;16.206;2024-03-02T12:03:32;12.50;99.90
33811;DHT22;20119;48.334;16.206;2024-03-02T12:08:29;12.50;99.90
33811;DHT22;20119;48.334;16.206;2024-03-02T12:10:58;12.60;99.90
33811;DHT22;20119;48.334;16.206;2024-03-02T12:16:03;12.70;99.90
33811;DHT22;20119;48.334;16.206;2024-03-02T12:18:30;12.80;99.90
33811;DHT22;20119;48.334;16.206;2024-03-02T12:20:56;12.70;99.90
33811;DHT22;20119;48.334;16.206;2024-03-02T12:25:59;12.70;99.90
33811;DHT22;20119;48.334;16.206;2024-03-02T12:28:26;12.70;99.90
33811;DHT22;20119;48.334;16.206;2024-03-02T12:30:53;12.70;99.90
33811;DHT22;20119;48.334;16.206;2024-03-02T12:33:22;12.70;99.90
33811;DHT22;20119;48.334;16.206;2024-03-02T12:35:50;12.90;99.90
33811;DHT22;20119;48.334;16.206;2024-03-02T12:38:17;12.70;99.90
33811;DHT22;20119;48.334;16.206;2024-03-02T12:40:47;12.80;99.90
33811;DHT22;20119;48.334;16.206;2024-03-02T12:43:14;12.80;99.90
33811;DHT22;20119;48.334;16.206;2024-03-02T12:45:41;12.80;99.90
33811;DHT22;20119;48.334;16.206;2024-03-02T12:48:08;12.90;99.90
33811;DHT22;20119;48.334;16.206;2024-03-02T12:50:36;12.70;99.90
33811;DHT22;20119;48.334;16.206;2024-03-02T12:53:04;12.80;99.90
33811;DHT22;20119;48.334;16.206;2024-03-02T12:55:31;12.70;99.90
33811;DHT22;20119;48.334;16.206;2024-03-02T12:57:58;12.70;99.90
33811;DHT22;20119;48.334;16.206;2024-03-02T13:00:25;12.80;99.90
33811;DHT22;20119;48.334;16.206;2024-03-02T13:02:52;13.10;99.90
33811;DHT22;20119;48.334;16.206;2024-03-02T13:05:20;12.90;99.90
33811;DHT22;20119;48.334;16.206;2024-03-02T13:07:48;12.80;99.90
33811;DHT22;20119;48.334;16.206;2024-03-02T13:10:19;12.70;99.90
33811;DHT22;20119;48.334;16.206;2024-03-02T13:12:46;12.80;99.90
33811;DHT22;20119;48.334;16.206;2024-03-02T13:15:13;12.80;99.90
33811;DHT22;20119;48.334;16.206;2024-03-02T13:17:41;12.90;99.90
33811;DHT22;20119;48.334;16.206;2024-03-02T13:20:09;12.80;99.90
33811;DHT22;20119;48.334;16.206;2024-03-02T13:22:37;12.90;99.90
33811;DHT22;20119;48.334;16.206;2024-03-02T13:25:06;13.00;99.90
33811;DHT22;20119;48.334;16.206;2024-03-02T13:27:36;12.90;99.90
33811;DHT22;20119;48.334;16.206;2024-03-02T13:30:04;12.80;99.90
33811;DHT22;20119;48.334;16.206;2024-03-02T13:32:33;12.80;99.90
33811;DHT22;20119;48.334;16.206;2024-03-02T13:35:00;12.70;99.90
33811;DHT22;20119;48.334;16.206;2024-03-02T13:40:06;12.70;99.90
33811;DHT22;20119;48.334;16.206;2024-03-02T13:45:08;12.40;99.90
33811;DHT22;20119;48.334;16.206;2024-03-02T13:47:35;12.50;99.90
33811;DHT22;20119;48.334;16.206;2024-03-02T13:50:02;12.50;99.90
33811;DHT22;20119;48.334;16.206;2024-03-02T13:52:30;12.40;99.90
33811;DHT22;20119;48.334;16.206;2024-03-02T13:55:00;12.30;99.90
33811;DHT22;20119;48.334;16.206;2024-03-02T13:57:29;12.40;99.90
33811;DHT22;20119;48.334;16.206;2024-03-02T13:59:56;12.30;99.90
33811;DHT22;20119;48.334;16.206;2024-03-02T14:02:23;12.20;99.90
33811;DHT22;20119;48.334;16.206;2024-03-02T14:07:20;12.40;99.90
33811;DHT22;20119;48.334;16.206;2024-03-02T14:09:47;12.30;99.90
33811;DHT22;20119;48.334;16.206;2024-03-02T14:12:14;12.30;99.90
33811;DHT22;20119;48.334;16.206;2024-03-02T14:14:43;12.20;99.90
33811;DHT22;20119;48.334;16.206;2024-03-02T14:17:10;12.10;99.90
33811;DHT22;20119;48.334;16.206;2024-03-02T14:19:44;12.10;99.90
33811;DHT22;20119;48.334;16.206;2024-03-02T14:22:11;12.20;99.90
33811;DHT22;20119;48.334;16.206;2024-03-02T14:32:29;12.30;99.90
33811;DHT22;20119;48.334;16.206;2024-03-02T14:37:31;12.10;99.90
33811;DHT22;20119;48.334;16.206;2024-03-02T14:39:58;12.20;99.90
33811;DHT22;20119;48.334;16.206;2024-03-02T14:45:01;12.20;99.90
33811;DHT22;20119;48.334;16.206;2024-03-02T14:47:32;12.20;99.90
33811;DHT22;20119;48.334;16.206;2024-03-02T14:50:01;12.20;99.90
33811;DHT22;20119;48.334;16.206;2024-03-02T14:52:31;12.40;99.90
33811;DHT22;20119;48.334;16.206;2024-03-02T14:54:58;12.30;99.90
33811;DHT22;20119;48.334;16.206;2024-03-02T14:57:25;12.30;99.90
33811;DHT22;20119;48.334;16.206;2024-03-02T14:59:53;12.30;99.90
33811;DHT22;20119;48.334;16.206;2024-03-02T15:02:20;12.30;99.90
33811;DHT22;20119;48.334;16.206;2024-03-02T15:04:49;12.30;99.90
33811;DHT22;20119;48.334;16.206;2024-03-02T15:07:16;12.20;99.90
33811;DHT22;20119;48.334;16.206;2024-03-02T15:12:19;12.10;99.90
33811;DHT22;20119;48.334;16.206;2024-03-02T15:14:46;12.10;99.90
33811;DHT22;20119;48.334;16.206;2024-03-02T15:17:13;12.10;99.90
33811;DHT22;20119;48.334;16.206;2024-03-02T15:19:42;12.10;99.90
33811;DHT22;20119;48.334;16.206;2024-03-02T15:22:11;12.10;99.90
33811;DHT22;20119;48.334;16.206;2024-03-02T15:24:38;12.00;99.90
33811;DHT22;20119;48.334;16.206;2024-03-02T15:27:06;12.00;99.90
33811;DHT22;20119;48.334;16.206;2024-03-02T15:29:34;12.00;99.90
33811;DHT22;20119;48.334;16.206;2024-03-02T15:32:01;11.90;99.90
33811;DHT22;20119;48.334;16.206;2024-03-02T15:34:30;11.90;99.90
33811;DHT22;20119;48.334;16.206;2024-03-02T15:36:58;11.80;99.90
33811;DHT22;20119;48.334;16.206;2024-03-02T15:39:26;11.80;99.90
33811;DHT22;20119;48.334;16.206;2024-03-02T15:41:54;11.80;99.90
33811;DHT22;20119;48.334;16.206;2024-03-02T15:46:56;11.60;99.90
33811;DHT22;20119;48.334;16.206;2024-03-02T15:49:23;11.50;99.90
33811;DHT22;20119;48.334;16.206;2024-03-02T15:54:27;11.40;99.90
33811;DHT22;20119;48.334;16.206;2024-03-02T15:56:54;11.30;99.90
33811;DHT22;20119;48.334;16.206;2024-03-02T15:59:21;11.30;99.90
33811;DHT22;20119;48.334;16.206;2024-03-02T16:01:48;11.30;99.90
33811;DHT22;20119;48.334;16.206;2024-03-02T16:04:15;11.30;99.90
33811;DHT22;20119;48.334;16.206;2024-03-02T16:06:43;11.20;99.90
33811;DHT22;20119;48.334;16.206;2024-03-02T16:09:10;11.10;99.90
33811;DHT22;20119;48.334;16.206;2024-03-02T16:11:39;11.20;99.90
33811;DHT22;20119;48.334;16.206;2024-03-02T16:14:06;11.10;99.90
33811;DHT22;20119;48.334;16.206;2024-03-02T16:16:33;11.20;99.90
33811;DHT22;20119;48.334;16.206;2024-03-02T16:19:00;11.10;99.90
33811;DHT22;20119;48.334;16.206;2024-03-02T16:21:28;11.10;99.90
33811;DHT22;20119;48.334;16.206;2024-03-02T16:23:55;11.00;99.90
33811;DHT22;20119;48.334;16.206;2024-03-02T16:26:23;11.10;99.90
33811;DHT22;20119;48.334;16.206;2024-03-02T16:28:52;11.00;99.90
33811;DHT22;20119;48.334;16.206;2024-03-02T16:31:19;11.00;99.90
33811;DHT22;20119;48.334;16.206;2024-03-02T16:33:46;11.00;99.90
33811;DHT22;20119;48.334;16.206;2024-03-02T16:36:13;10.90;99.90
33811;DHT22;20119;48.334;16.206;2024-03-02T16:38:40;10.90;99.90
33811;DHT22;20119;48.334;16.206;2024-03-02T16:41:09;10.90;99.90
33811;DHT22;20119;48.334;16.206;2024-03-02T16:48:47;10.80;99.90
33811;DHT22;20119;48.334;16.206;2024-03-02T16:51:14;10.60;99.90
33811;DHT22;20119;48.334;16.206;2024-03-02T16:53:41;10.60;99.90
33811;DHT22;20119;48.334;16.206;2024-03-02T16:56:08;10.60;99.90
33811;DHT22;20119;48.334;16.206;2024-03-02T16:58:35;10.60;99.90
33811;DHT22;20119;48.334;16.206;2024-03-02T17:03:34;10.60;99.90
33811;DHT22;20119;48.334;16.206;2024-03-02T17:06:03;10.50;99.90
33811;DHT22;20119;48.334;16.206;2024-03-02T17:08:31;10.50;99.90
33811;DHT22;20119;48.334;16.206;2024-03-02T17:10:58;10.50;99.90
33811;DHT22;20119;48.334;16.206;2024-03-02T17:13:25;10.40;99.90
33811;DHT22;20119;48.334;16.206;2024-03-02T17:15:52;10.40;99.90
33811;DHT22;20119;48.334;16.206;2024-03-02T17:18:19;10.40;99.90
33811;DHT22;20119;48.334;16.206;2024-03-02T17:20:46;10.50;99.90
33811;DHT22;20119;48.334;16.206;2024-03-02T17:23:14;10.40;99.90
33811;DHT22;20119;48.334;16.206;2024-03-02T17:25:41;10.40;99.90
33811;DHT22;20119;48.334;16.206;2024-03-02T17:28:19;10.40;99.90
33811;DHT22;20119;48.334;16.206;2024-03-02T17:30:46;10.40;99.90
33811;DHT22;20119;48.334;16.206;2024-03-02T17:33:13;10.40;99.90
33811;DHT22;20119;48.334;16.206;2024-03-02T17:35:41;10.40;99.90
33811;DHT22;20119;48.334;16.206;2024-03-02T17:38:10;10.30;99.90
33811;DHT22;20119;48.334;16.206;2024-03-02T17:40:39;10.30;99.90
33811;DHT22;20119;48.334;16.206;2024-03-02T17:43:06;10.30;99.90
33811;DHT22;20119;48.334;16.206;2024-03-02T17:45:33;10.30;99.90
33811;DHT22;20119;48.334;16.206;2024-03-02T17:48:00;10.20;99.90
33811;DHT22;20119;48.334;16.206;2024-03-02T17:50:28;10.30;99.90
33811;DHT22;20119;48.334;16.206;2024-03-02T17:52:55;10.20;99.90
33811;DHT22;20119;48.334;16.206;2024-03-02T17:55:22;10.30;99.90
33811;DHT22;20119;48.334;16.206;2024-03-02T17:57:55;10.20;99.90
33811;DHT22;20119;48.334;16.206;2024-03-02T18:00:22;10.20;99.90
33811;DHT22;20119;48.334;16.206;2024-03-02T18:02:49;10.20;99.90
33811;DHT22;20119;48.334;16.206;2024-03-02T18:05:16;10.20;99.90